Flight Track Log - Related Links

Times and Time Zones

All times are in EDT time to prevent confusion due to time zone crossing. See the SKW5516 flight status page for this flight to view local times or setup timezone preferences in your user account.

Time Position Orientation Groundspeed Altitude Reporting Facility
EDT Latitude Longitude Course Direction KTS MPH feet Rate Location/Type
Fri 08:48:59 AM 38.9333 -77.5500 270° West 198 228 2,500  Level Potomac TRACON
Fri 08:49:53 AM 38.9167 -77.6333 256° West 254 292 4,300 2,105 Climbing Potomac TRACON
Fri 08:50:53 AM 38.8833 -77.7167 243° Southwest 293 337 6,500 2,550 Climbing Potomac TRACON
Fri 08:51:53 AM 38.8500 -77.8000 243° Southwest 291 335 9,400 2,421 Climbing Potomac TRACON
Fri 08:52:47 AM 38.8500 -77.8833 270° West 289 333 11,100 2,087 Climbing Potomac TRACON
Fri 08:53:48 AM 38.8500 -78.0000 270° West 310 357 13,400 2,020 Climbing Potomac TRACON
Fri 08:54:00 AM 38.8500 -78.2619 270° West  Level FlightAware Approximate
Fri 08:54:25 AM 38.8506 -78.0600 271° West 319 367 14,400  Level Washington Center
Fri 08:55:25 AM 38.8525 -78.1719 271° West 327 376 16,600 2,083 Climbing Washington Center
Fri 08:56:26 AM 38.8539 -78.2894 271° West 327 376 18,600 1,866 Climbing Washington Center
Fri 08:57:24 AM 38.8533 -78.4092 270° West 327 376 20,300 1,932 Climbing Washington Center
Fri 08:58:24 AM 38.8503 -78.5344 268° West 337 388 22,400 1,736 Climbing Washington Center
Fri 08:59:25 AM 38.8492 -78.6625 269° West 349 402 23,800 1,388 Climbing Washington Center
Fri 09:00:25 AM 38.8481 -78.7903 269° West 356 410 25,200 1,339 Climbing Washington Center
Fri 09:01:26 AM 38.8278 -78.9225 259° West 367 422 26,500 1,412 Climbing Washington Center
Fri 09:02:24 AM 38.8072 -79.0522 259° West 372 428 28,000 1,261 Climbing Washington Center
Fri 09:03:25 AM 38.7867 -79.1897 259° West 377 434 29,000 893 Climbing Washington Center
Fri 09:04:25 AM 38.7678 -79.3328 260° West 396 456 29,800 700 Climbing Washington Center
Fri 09:05:25 AM 38.7397 -79.4908 257° West 412 474 30,400 958 Climbing Washington Center
Fri 09:06:24 AM 38.7161 -79.6361 258° West 419 482 31,700 1,140 Climbing Washington Center
Fri 09:07:26 AM 38.6925 -79.7783 258° West 419 482 32,700 857 Climbing Washington Center
Fri 09:08:23 AM 38.6444 -79.8981 243° Southwest 419 482 33,400 661 Climbing Washington Center
Fri 09:09:24 AM 38.5853 -80.0325 241° Southwest 427 491 34,000 679 Climbing Washington Center
Fri 09:11:02 AM 38.5250 -80.2806 253° West 431 496 35,200 750 Climbing Indianapolis Center
Fri 09:12:04 AM 38.4936 -80.4206 254° West 426 490 36,000 387 Climbing Indianapolis Center
Fri 09:13:06 AM 38.4586 -80.5775 254° West 424 488 36,000  Level Indianapolis Center
Fri 09:14:08 AM 38.4244 -80.7203 253° West 420 483 36,000  Level Indianapolis Center
Fri 09:15:10 AM 38.3900 -80.8636 253° West 422 486 36,000  Level Indianapolis Center
Fri 09:16:12 AM 38.3553 -81.0100 253° West 427 491 36,000  Level Indianapolis Center
Fri 09:17:14 AM 38.3211 -81.1558 253° West 427 491 36,000  Level Indianapolis Center
Fri 09:18:17 AM 38.2861 -81.3036 253° West 430 495 36,000  Level Indianapolis Center
Fri 09:19:18 AM 38.2511 -81.4489 253° West 428 493 36,000  Level Indianapolis Center
Fri 09:20:20 AM 38.2178 -81.5892 253° West 415 478 36,000  Level Indianapolis Center
Fri 09:21:23 AM 38.1781 -81.7558 253° West 408 470 36,000  Level Indianapolis Center
Fri 09:22:25 AM 38.1436 -81.8972 253° West 415 478 36,000  Level Indianapolis Center
Fri 09:23:27 AM 38.1086 -82.0369 252° West 415 478 36,000  Level Indianapolis Center
Fri 09:24:29 AM 38.0744 -82.1767 253° West 419 482 36,000  Level Indianapolis Center
Fri 09:25:31 AM 38.0400 -82.3175 253° West 418 481 36,000  Level Indianapolis Center
Fri 09:26:33 AM 37.9994 -82.4814 253° West 417 480 36,000  Level Indianapolis Center
Fri 09:27:35 AM 37.9647 -82.6203 252° West 414 476 36,000  Level Indianapolis Center
Fri 09:28:37 AM 37.9300 -82.7606 253° West 417 480 36,000  Level Indianapolis Center
Fri 09:29:39 AM 37.8933 -82.9014 252° West 421 484 36,000  Level Indianapolis Center
Fri 09:30:41 AM 37.8578 -83.0458 253° West 428 493 36,000  Level Indianapolis Center
Fri 09:31:43 AM 37.8156 -83.2131 252° West 429 494 36,000  Level Indianapolis Center
Fri 09:32:45 AM 37.7775 -83.3581 252° West 434 499 36,000  Level Indianapolis Center
Fri 09:33:47 AM 37.7394 -83.5008 251° West 432 497 36,000  Level Indianapolis Center
Fri 09:34:49 AM 37.7019 -83.6447 252° West 431 496 36,000  Level Indianapolis Center
Fri 09:35:51 AM 37.6650 -83.7872 252° West 430 495 36,000  Level Indianapolis Center
Fri 09:36:53 AM 37.6200 -83.9525 251° West 427 491 36,000  Level Indianapolis Center
Fri 09:37:55 AM 37.5831 -84.0956 252° West 427 491 36,000  Level Indianapolis Center
Fri 09:38:57 AM 37.5453 -84.2383 252° West 430 495 36,000  Level Indianapolis Center
Fri 09:39:59 AM 37.5067 -84.3789 251° West 427 491 36,000  Level Indianapolis Center
Fri 09:41:01 AM 37.4694 -84.5206 252° West 427 491 36,000  Level Indianapolis Center
Fri 09:42:03 AM 37.4231 -84.6861 251° West 429 494 36,000  Level Indianapolis Center
Fri 09:43:05 AM 37.3847 -84.8281 251° West 430 495 36,000  Level Indianapolis Center
Fri 09:44:07 AM 37.3456 -84.9700 251° West 430 495 36,000  Level Indianapolis Center
Fri 09:45:09 AM 37.3061 -85.1117 251° West 429 494 36,000  Level Indianapolis Center
Fri 09:46:11 AM 37.2669 -85.2544 251° West 432 497 36,000  Level Indianapolis Center
Fri 09:47:13 AM 37.2203 -85.4203 251° West 433 498 36,000  Level Indianapolis Center
Fri 09:48:15 AM 37.1808 -85.5619 251° West 434 499 36,000  Level Indianapolis Center
Fri 09:49:18 AM 37.1400 -85.7067 251° West 438 504 36,000  Level Indianapolis Center
Fri 09:50:20 AM 37.0983 -85.8517 250° West 438 504 36,000  Level Indianapolis Center
Fri 09:51:22 AM 37.0581 -85.9956 251° West 436 502 36,000  Level Indianapolis Center
Fri 09:52:24 AM 37.0164 -86.1411 250° West 439 505 36,000  Level Indianapolis Center
Fri 09:53:26 AM 36.9736 -86.2864 250° West 441 507 36,000  Level Indianapolis Center
Fri 09:54:28 AM 36.9219 -86.4567 249° West 444 511 36,000  Level Indianapolis Center
Fri 09:55:30 AM 36.8517 -86.5928 237° Southwest 463 533 36,000  Level Indianapolis Center
Fri 09:56:32 AM 36.7817 -86.7281 237° Southwest 461 531 36,000  Level Indianapolis Center
Fri 09:57:32 AM 36.7097 -86.8706 238° Southwest 467 537 36,000  Level Memphis Center
Fri 09:58:32 AM 36.6428 -87.0056 238° Southwest 467 537 36,000  Level Memphis Center
Fri 09:59:32 AM 36.5733 -87.1375 237° Southwest 467 537 36,000  Level Memphis Center
Fri 10:00:33 AM 36.5036 -87.2669 236° Southwest 467 537 36,000  Level Memphis Center
Fri 10:01:32 AM 36.4339 -87.3983 237° Southwest 467 537 36,000  Level Memphis Center
Fri 10:02:32 AM 36.3639 -87.5272 236° Southwest 467 537 36,000  Level Memphis Center
Fri 10:03:32 AM 36.2919 -87.6636 237° Southwest 472 543 36,000 550 Level Memphis Center
Fri 10:04:32 AM 36.2217 -87.7972 237° Southwest 479 551 37,100 1,000 Climbing Memphis Center
Fri 10:05:32 AM 36.1514 -87.9281 236° Southwest 469 540 38,000 450 Climbing Memphis Center
Fri 10:06:32 AM 36.0850 -88.0583 238° Southwest 463 533 38,000  Level Memphis Center
Fri 10:07:32 AM 36.0225 -88.1653 234° Southwest 456 525 38,000  Level Memphis Center
Fri 10:08:32 AM 35.9517 -88.2928 236° Southwest 449 517 38,000  Level Memphis Center
Fri 10:09:32 AM 35.8808 -88.4228 236° Southwest 454 522 38,000  Level Memphis Center
Fri 10:10:33 AM 35.8117 -88.5497 236° Southwest 454 522 38,000  Level Memphis Center
Fri 10:11:32 AM 35.7406 -88.6767 235° Southwest 454 522 38,000  Level Memphis Center
Fri 10:12:32 AM 35.6672 -88.8186 238° Southwest 454 522 38,000  Level Memphis Center
Fri 10:13:32 AM 35.5958 -88.9450 235° Southwest 449 517 38,000  Level Memphis Center
Fri 10:14:32 AM 35.5264 -89.0764 237° Southwest 455 524 38,000  Level Memphis Center
Fri 10:15:32 AM 35.4525 -89.2050 235° Southwest 462 532 38,000  Level Memphis Center
Fri 10:16:32 AM 35.3806 -89.3333 236° Southwest 462 532 38,000  Level Memphis Center
Fri 10:17:32 AM 35.3086 -89.4664 236° Southwest 467 537 38,000  Level Memphis Center
Fri 10:18:32 AM 35.2364 -89.5944 235° Southwest 467 537 38,000  Level Memphis Center
Fri 10:19:32 AM 35.1642 -89.7272 236° Southwest 472 543 38,000  Level Memphis Center
Fri 10:20:32 AM 35.0939 -89.8572 237° Southwest 472 543 38,000  Level Memphis Center
Fri 10:21:32 AM 35.0192 -89.9894 235° Southwest 472 543 38,000  Level Memphis Center
Fri 10:22:32 AM 34.9403 -90.1164 233° Southwest 472 543 38,000  Level Memphis Center
Fri 10:23:32 AM 34.8614 -90.2406 232° Southwest 472 543 38,000  Level Memphis Center
Fri 10:24:32 AM 34.7819 -90.3672 233° Southwest 472 543 38,000  Level Memphis Center
Fri 10:25:32 AM 34.7047 -90.4911 233° Southwest 472 543 38,000  Level Memphis Center
Fri 10:26:32 AM 34.6336 -90.6044 233° Southwest 472 543 38,000  Level Memphis Center
Fri 10:27:32 AM 34.5542 -90.7278 232° Southwest 470 541 38,000  Level Memphis Center
Fri 10:28:32 AM 34.4786 -90.8508 233° Southwest 470 541 38,000  Level Memphis Center
Fri 10:29:32 AM 34.4008 -90.9739 233° Southwest 470 541 38,000  Level Memphis Center
Fri 10:30:32 AM 34.3208 -91.0967 232° Southwest 470 541 38,000  Level Memphis Center
Fri 10:31:32 AM 34.2450 -91.2189 233° Southwest 465 535 38,000  Level Memphis Center
Fri 10:32:32 AM 34.1667 -91.3411 232° Southwest 465 535 38,000  Level Memphis Center
Fri 10:33:32 AM 34.0842 -91.4758 234° Southwest 465 535 38,000  Level Memphis Center
Fri 10:34:32 AM 34.0039 -91.5975 232° Southwest 459 528 38,000  Level Memphis Center
Fri 10:35:32 AM 33.9275 -91.7167 232° Southwest 459 528 38,000  Level Memphis Center
Fri 10:37:13 AM 33.8044 -91.9144 233° Southwest 439 505 38,000  Level Fort Worth Center
Fri 10:38:13 AM 33.7264 -92.0344 232° Southwest 449 517 38,000  Level Fort Worth Center
Fri 10:39:13 AM 33.6458 -92.1517 230° Southwest 454 522 38,000  Level Fort Worth Center
Fri 10:40:13 AM 33.5714 -92.2681 233° Southwest 454 522 38,000  Level Fort Worth Center
Fri 10:41:13 AM 33.4925 -92.3847 231° Southwest 454 522 38,000  Level Fort Worth Center
Fri 10:42:13 AM 33.4178 -92.5011 232° Southwest 454 522 38,000  Level Fort Worth Center
Fri 10:43:13 AM 33.3411 -92.6197 232° Southwest 454 522 38,000  Level Fort Worth Center
Fri 10:44:13 AM 33.2619 -92.7333 230° Southwest 454 522 38,000  Level Fort Worth Center
Fri 10:45:13 AM 33.1775 -92.8197 221° Southwest 448 516 38,000  Level Fort Worth Center
Fri 10:46:13 AM 33.0806 -92.9114 218° Southwest 449 517 38,000  Level Fort Worth Center
Fri 10:47:13 AM 32.9836 -93.0053 219° Southwest 454 522 38,000  Level Fort Worth Center
Fri 10:48:13 AM 32.8867 -93.0967 218° Southwest 454 522 38,000  Level Fort Worth Center
Fri 10:49:13 AM 32.7897 -93.1903 219° Southwest 454 522 38,000  Level Fort Worth Center
Fri 10:50:13 AM 32.6925 -93.2814 218° Southwest 454 522 38,000  Level Fort Worth Center
Fri 10:51:13 AM 32.5953 -93.3744 219° Southwest 454 522 38,000  Level Fort Worth Center
Fri 10:52:13 AM 32.4981 -93.4675 219° Southwest 460 529 38,000  Level Fort Worth Center
Fri 10:53:13 AM 32.3986 -93.5606 218° Southwest 453 521 38,000  Level Fort Worth Center
Fri 10:54:13 AM 32.3033 -93.6531 219° Southwest 453 521 38,000  Level Fort Worth Center
Fri 10:55:13 AM 32.2039 -93.7431 217° Southwest 458 527 38,000  Level Fort Worth Center
Fri 10:56:11 AM 32.1106 -93.8375 221° Southwest 452 520 38,000  Level Houston Center
Fri 10:57:13 AM 32.0144 -93.9281 219° Southwest 453 521 38,000  Level Houston Center
Fri 10:58:13 AM 31.9092 -94.0314 220° Southwest 463 533 38,000  Level Fort Worth Center
Fri 10:59:17 AM 31.7964 -94.1319 217° Southwest 456 525 38,000  Level Houston Center
Fri 11:00:19 AM 31.6936 -94.2292 219° Southwest 460 529 38,000  Level Houston Center
Fri 11:01:21 AM 31.5942 -94.3208 218° Southwest 455 524 38,000  Level Houston Center
Fri 11:02:24 AM 31.4939 -94.4128 218° Southwest 457 526 38,000  Level Houston Center
Fri 11:03:26 AM 31.3925 -94.5058 218° Southwest 459 528 38,000  Level Houston Center
Fri 11:04:28 AM 31.2917 -94.5956 217° Southwest 453 521 38,000  Level Houston Center
Fri 11:05:30 AM 31.1867 -94.6953 219° Southwest 475 547 38,000  Level Houston Center
Fri 11:06:32 AM 31.0836 -94.8006 221° Southwest 461 531 38,000  Level Houston Center
Fri 11:07:34 AM 30.9892 -94.9028 223° Southwest 461 531 38,000  Level Houston Center
Fri 11:08:36 AM 30.8756 -95.0253 223° Southwest 460 529 38,000  Level Houston Center
Fri 11:09:38 AM 30.7808 -95.1275 223° Southwest 463 533 38,000  Level Houston Center
Fri 11:10:41 AM 30.6872 -95.2286 223° Southwest 459 528 38,000  Level Houston Center
Fri 11:11:43 AM 30.5928 -95.3278 222° Southwest 458 527 38,000  Level Houston Center
Fri 11:12:45 AM 30.4931 -95.4333 222° Southwest 457 526 38,000  Level Houston Center
Fri 11:13:47 AM 30.3997 -95.5331 223° Southwest 459 528 38,000  Level Houston Center
Fri 11:14:49 AM 30.3069 -95.6311 222° Southwest 456 525 38,000  Level Houston Center
Fri 11:15:51 AM 30.2147 -95.7278 222° Southwest 452 520 38,000  Level Houston Center
Fri 11:16:53 AM 30.1039 -95.8442 222° Southwest 451 519 38,000  Level Houston Center
Fri 11:17:55 AM 30.0103 -95.9406 222° Southwest 454 522 38,000  Level Houston Center
Fri 11:18:57 AM 29.9228 -96.0325 222° Southwest 450 518 38,000  Level Houston Center
Fri 11:20:00 AM 29.8367 -96.1350 226° Southwest 448 516 38,000  Level Houston Center
Fri 11:21:02 AM 29.7900 -96.2917 251° West 435 501 38,000 -387 Level Houston Center
Fri 11:22:04 AM 29.7981 -96.4294 274° West 435 501 37,200 -1,113 Descending Houston Center
Fri 11:23:06 AM 29.8083 -96.5644 275° West 428 493 35,700 -1,452 Descending Houston Center
Fri 11:24:08 AM 29.8181 -96.6989 275° West 426 490 34,200 -1,452 Descending Houston Center
Fri 11:25:10 AM 29.8283 -96.8392 275° West 441 507 32,700 -1,597 Descending Houston Center
Fri 11:26:12 AM 29.8406 -97.0094 275° West 447 514 30,900 -2,112 Descending Houston Center
Fri 11:27:15 AM 29.8500 -97.1525 274° West 450 518 28,300 -2,784 Descending Houston Center
Fri 11:28:17 AM 29.8603 -97.2917 275° West 442 509 25,100 -3,048 Descending Houston Center
Fri 11:29:19 AM 29.8703 -97.4289 275° West 434 499 22,000 -3,161 Descending Houston Center
Fri 11:30:09 AM 29.8775 -97.5558 274° West 420 483 19,200 -3,128 Descending Houston Center
Fri 11:31:16 AM 29.8878 -97.7039 275° West 399 459 15,900 -2,691 Descending Houston Center
Fri 11:32:25 AM 29.8967 -97.8469 274° West 391 450 13,100 -1,511 Descending Houston Center
Fri 11:33:27 AM 29.8572 -97.9572 248° West 377 434 12,600 -1,053 Descending Houston Center
Fri 11:34:36 AM 29.8092 -98.0681 243° Southwest 330 380 10,800 -1,452 Descending Houston Center
Fri 11:35:31 AM 29.7586 -98.1322 228° Southwest 285 328 9,600 -1,541 Descending Houston Center
Fri 11:36:25 AM 29.7519 -98.2172 265° West 287 330 8,000 -1,689 Descending Houston Center
Fri 11:37:14 AM 29.7478 -98.2875 266° West 285 328 6,700 -1,606 Descending Houston Center
Fri 11:37:36 AM 29.7453 -98.3217 265° West 285 328 6,100 -689 Descending Houston Center
Fri 11:38:15 AM 29.7422 -98.3844 267° West 284 327 6,000 -97 Descending Houston Center
Fri 11:38:38 AM 29.7392 -98.4183 264° West 284 327 6,000 -1,000 Level Houston Center
Fri 11:39:21 AM 29.7364 -98.4814 267° West 282 325 4,900 -1,645 Descending Houston Center
Fri 11:39:40 AM 29.7339 -98.5069 264° West 281 323 4,300 -885 Descending Houston Center
Fri 11:40:22 AM 29.7419 -98.5650 279° West 261 300 4,000 -290 Descending Houston Center
Fri 11:40:42 AM 29.7467 -98.5939 281° West 255 293 4,000  Level Houston Center
Fri 11:41:23 AM 29.7597 -98.6447 286° West 234 269 4,000  Level Houston Center
Fri 11:41:44 AM 29.7658 -98.6667 288° West 241 277 4,000  Level Houston Center
Fri 11:42:24 AM 29.7442 -98.7044 237° Southwest 201 231 4,000 -97 Level Houston Center
Fri 11:42:46 AM 29.7275 -98.7094 195° South 188 216 3,900 -787 Descending Houston Center
Fri 11:43:25 AM 29.7036 -98.6969 156° South 156 180 3,200 -762 Descending Houston Center
Fri 11:43:49 AM 29.6919 -98.6828 133° Southeast 159 183 3,100  Descending Houston Center
Fri 11:44:26 AM 29.6794 -98.6639 127° Southeast 125 144 3,200  Climbing Houston Center
Fri 11:44:51 AM 29.6686 -98.6469 126° Southeast 133 153 3,100 -100 Descending Houston Center
Fri 11:45:26 AM 29.6558 -98.6331 137° Southeast 129 148 3,100  Level Houston Center
Fri 11:45:53 AM 29.6461 -98.6183 127° Southeast 131 151 3,100 98 Level Houston Center
Fri 11:46:27 AM 29.6319 -98.6022 135° Southeast 131 151 3,200  Climbing Houston Center
Fri 11:46:55 AM 29.6200 -98.5853 129° Southeast 130 150 3,100 -492 Descending Houston Center
Fri 11:47:28 AM 29.6058 -98.5692 135° Southeast 127 146 2,700 -677 Descending Houston Center
Fri 11:47:57 AM 29.5953 -98.5525 126° Southeast 127 146 2,400 -689 Descending Houston Center
Fri 11:48:29 AM 29.5819 -98.5383 137° Southeast 126 145 2,000 -677 Descending Houston Center
Fri 11:48:59 AM 29.5719 -98.5225 126° Southeast 127 146 1,700 -600 Descending Houston Center
Fri 11:49:29 AM 29.5583 -98.5078 137° Southeast 130 150 1,400 -677 Descending Houston Center
Fri 11:50:01 AM 29.5469 -98.4894 126° Southeast 128 147 1,000 -750 Descending Houston Center

Login

Don't have an account? Register now (free) for customized features, flight alerts, and more!